Time;durP1;ratioP1;P1;durP2;ratioP2;P2;SDS_P1;SDS_P2;PMS_P1;PMS_P2;Temp;Humidity;BMP_temperature;BMP_pressure;BME280_temperature;BME280_humidity;BME280_pressure;Samples;Min_cycle;Max_cycle;Signal;HPM_P1;HPM_P2
2023/11/19 00:02:19;;;;;;;0.30;0.30;;;13.30;99.20;;;;;;4954108;29;20186;-59
2023/11/19 00:04:45;;;;;;;0.40;0.40;;;13.10;99.50;;;;;;4954976;29;20801;-59
2023/11/19 00:07:13;;;;;;;0.40;0.40;;;13.00;99.80;;;;;;4954706;29;20433;-59
2023/11/19 00:09:39;;;;;;;0.33;0.33;;;13.10;99.90;;;;;;4954694;28;20175;-59
2023/11/19 00:12:06;;;;;;;0.50;0.50;;;13.10;99.90;;;;;;4954456;29;20448;-59
2023/11/19 00:14:32;;;;;;;0.30;0.30;;;13.10;99.90;;;;;;4954397;28;20416;-59
2023/11/19 00:16:57;;;;;;;0.63;0.60;;;13.00;99.90;;;;;;4954258;29;20828;-59
2023/11/19 00:19:23;;;;;;;0.30;0.30;;;12.80;99.90;;;;;;4954544;29;20162;-59
2023/11/19 00:21:48;;;;;;;0.30;0.30;;;12.90;99.90;;;;;;4937425;29;20173;-59
2023/11/19 00:24:18;;;;;;;0.30;0.30;;;13.00;99.90;;;;;;4954365;29;20188;-59
2023/11/19 00:27:00;;;;;;;0.30;0.30;;;13.30;99.90;;;;;;4952759;29;20456;-58
2023/11/19 00:29:26;;;;;;;0.57;0.57;;;13.30;99.70;;;;;;4954329;29;20429;-58
2023/11/19 00:31:52;;;;;;;0.60;0.60;;;13.30;99.90;;;;;;4954199;29;20169;-59
2023/11/19 00:34:21;;;;;;;0.40;0.40;;;13.30;99.80;;;;;;4954203;29;20442;-59
2023/11/19 00:36:46;;;;;;;0.40;0.40;;;13.20;99.90;;;;;;4954071;29;20870;-59
2023/11/19 00:39:14;;;;;;;0.40;0.40;;;13.30;99.80;;;;;;4953967;29;20417;-59
2023/11/19 00:41:41;;;;;;;0.30;0.30;;;13.10;99.60;;;;;;4953984;29;20640;-58
2023/11/19 00:44:08;;;;;;;0.32;0.32;;;13.30;99.50;;;;;;4953942;29;20401;-59
2023/11/19 00:46:34;;;;;;;0.50;0.50;;;13.30;99.40;;;;;;4953900;29;20667;-58
2023/11/19 00:49:01;;;;;;;0.50;0.50;;;13.30;99.80;;;;;;4954049;29;20460;-59
2023/11/19 00:51:26;;;;;;;0.67;0.50;;;13.40;99.70;;;;;;4954058;29;20177;-59
2023/11/19 00:53:55;;;;;;;0.40;0.40;;;13.50;99.50;;;;;;4936920;29;20843;-59
2023/11/19 00:56:21;;;;;;;0.30;0.30;;;13.50;99.60;;;;;;4953743;29;20213;-59
2023/11/19 00:58:47;;;;;;;1.30;0.60;;;13.50;99.90;;;;;;4953921;29;20421;-59
2023/11/19 01:01:13;;;;;;;0.77;0.77;;;13.60;99.70;;;;;;4953809;29;20192;-58
2023/11/19 01:03:38;;;;;;;0.40;0.40;;;13.50;99.60;;;;;;4953580;29;20425;-59
2023/11/19 01:06:05;;;;;;;0.80;0.80;;;13.60;99.60;;;;;;4953783;29;20201;-58
2023/11/19 01:08:30;;;;;;;0.30;0.30;;;13.70;99.40;;;;;;4953850;29;20185;-59
2023/11/19 01:10:56;;;;;;;0.67;0.67;;;13.50;99.60;;;;;;4955576;28;20428;-59
2023/11/19 01:13:22;;;;;;;0.30;0.30;;;13.30;99.80;;;;;;4972707;28;20180;-59
2023/11/19 01:15:47;;;;;;;2.67;0.67;;;13.20;99.90;;;;;;4972814;28;20197;-58
2023/11/19 01:18:13;;;;;;;0.40;0.40;;;13.30;99.90;;;;;;4973012;28;20463;-59
2023/11/19 01:20:39;;;;;;;1.17;1.07;;;13.20;99.90;;;;;;4973027;28;20572;-58
2023/11/19 01:23:04;;;;;;;0.47;0.47;;;13.30;99.90;;;;;;4955518;28;20187;-58
2023/11/19 01:25:30;;;;;;;0.60;0.60;;;13.10;99.90;;;;;;4972751;28;20596;-58
2023/11/19 01:27:59;;;;;;;0.60;0.60;;;13.00;99.90;;;;;;4976247;28;20189;-58
2023/11/19 01:30:24;;;;;;;0.70;0.60;;;13.20;99.90;;;;;;4976800;28;20203;-58
2023/11/19 01:32:50;;;;;;;0.40;0.40;;;13.40;99.90;;;;;;4976507;28;20410;-58
2023/11/19 01:35:16;;;;;;;0.40;0.40;;;13.50;99.90;;;;;;4976849;28;20902;-59
2023/11/19 01:37:41;;;;;;;0.37;0.37;;;13.60;99.90;;;;;;4976610;28;20204;-58
2023/11/19 01:40:10;;;;;;;0.47;0.47;;;13.60;99.90;;;;;;4976662;28;20184;-59
2023/11/19 01:42:38;;;;;;;0.50;0.50;;;13.70;99.90;;;;;;4976625;28;20569;-58
2023/11/19 01:45:07;;;;;;;0.73;0.73;;;13.70;99.90;;;;;;4976630;28;20538;-58
2023/11/19 01:47:33;;;;;;;0.87;0.50;;;13.80;99.90;;;;;;4976574;28;20998;-58
2023/11/19 01:49:59;;;;;;;0.37;0.37;;;13.80;99.90;;;;;;4976229;28;20424;-58
2023/11/19 01:52:25;;;;;;;0.40;0.40;;;13.70;99.90;;;;;;4958808;28;20424;-59
2023/11/19 01:54:53;;;;;;;3.03;1.83;;;13.80;99.90;;;;;;4976418;28;20419;-58
2023/11/19 01:57:22;;;;;;;0.30;0.30;;;13.80;99.80;;;;;;4976382;28;20460;-58
2023/11/19 01:59:51;;;;;;;0.30;0.30;;;13.60;99.90;;;;;;4976100;28;20914;-58
2023/11/19 02:02:20;;;;;;;0.57;0.50;;;13.60;99.90;;;;;;4976080;28;20794;-59
2023/11/19 02:04:48;;;;;;;10.13;1.33;;;13.50;99.90;;;;;;4976256;28;20419;-59
2023/11/19 02:07:17;;;;;;;0.40;0.40;;;13.60;99.90;;;;;;4975823;28;20515;-58
2023/11/19 02:09:43;;;;;;;0.40;0.40;;;13.90;99.90;;;;;;4976386;28;20428;-59
2023/11/19 02:12:11;;;;;;;0.50;0.40;;;14.00;99.90;;;;;;4976213;28;20415;-59
2023/11/19 02:14:37;;;;;;;0.30;0.30;;;14.10;99.90;;;;;;4976125;28;20420;-58
2023/11/19 02:17:03;;;;;;;0.30;0.30;;;14.00;99.90;;;;;;4975833;28;20486;-59
2023/11/19 02:19:29;;;;;;;0.60;0.50;;;14.20;99.80;;;;;;4975925;28;20423;-59
2023/11/19 02:21:55;;;;;;;0.30;0.30;;;14.30;99.40;;;;;;4976038;28;20415;-59
2023/11/19 02:24:23;;;;;;;0.30;0.30;;;14.20;99.60;;;;;;4975762;28;20177;-59
2023/11/19 02:26:48;;;;;;;0.40;0.40;;;14.00;99.90;;;;;;4975716;28;20462;-58
2023/11/19 02:29:14;;;;;;;0.37;0.37;;;14.00;99.90;;;;;;4975804;28;20416;-59
2023/11/19 02:31:40;;;;;;;0.30;0.30;;;14.00;99.90;;;;;;4975769;28;20211;-59
2023/11/19 02:34:05;;;;;;;0.63;0.57;;;13.80;99.90;;;;;;4975433;28;20257;-59
2023/11/19 02:36:32;;;;;;;0.37;0.37;;;13.60;99.90;;;;;;4975537;28;20242;-58
2023/11/19 02:38:58;;;;;;;0.37;0.37;;;13.50;99.90;;;;;;4974328;28;20637;-58
2023/11/19 02:41:24;;;;;;;4.80;0.93;;;13.60;99.90;;;;;;4970184;28;20432;-58
2023/11/19 02:43:49;;;;;;;0.50;0.50;;;13.60;99.90;;;;;;4955918;29;20424;-59
2023/11/19 02:46:17;;;;;;;0.30;0.30;;;13.80;99.90;;;;;;4956125;29;20571;-59
2023/11/19 02:48:45;;;;;;;0.50;0.50;;;13.60;99.90;;;;;;4956132;29;20182;-59
2023/11/19 02:51:11;;;;;;;0.40;0.40;;;13.60;99.90;;;;;;4956307;29;20464;-59
2023/11/19 02:53:37;;;;;;;0.30;0.30;;;13.70;99.90;;;;;;4955893;29;20927;-59
2023/11/19 02:56:25;;;;;;;0.30;0.30;;;13.80;99.90;;;;;;4955938;29;21028;-59
2023/11/19 02:58:51;;;;;;;0.40;0.40;;;13.90;99.90;;;;;;4955989;29;20438;-59
2023/11/19 03:01:35;;;;;;;0.37;0.37;;;13.90;99.90;;;;;;4955909;29;20417;-59
2023/11/19 03:04:03;;;;;;;0.30;0.30;;;14.00;99.90;;;;;;4955650;29;20174;-59
2023/11/19 03:06:29;;;;;;;0.40;0.40;;;14.10;99.90;;;;;;4955770;29;20958;-59
2023/11/19 03:08:56;;;;;;;0.30;0.30;;;14.20;99.90;;;;;;4955984;29;20887;-59
2023/11/19 03:11:21;;;;;;;2.30;0.40;;;14.30;99.90;;;;;;4955812;29;20492;-59
2023/11/19 03:13:47;;;;;;;0.30;0.30;;;14.30;99.90;;;;;;4955363;29;20413;-59
2023/11/19 03:16:13;;;;;;;0.30;0.30;;;14.30;99.90;;;;;;4955500;29;20393;-59
2023/11/19 03:18:39;;;;;;;0.30;0.30;;;14.10;99.90;;;;;;4955902;29;20177;-59
2023/11/19 03:21:08;;;;;;;0.30;0.30;;;14.10;99.90;;;;;;4955751;29;20185;-59
2023/11/19 03:23:35;;;;;;;0.30;0.30;;;14.10;99.90;;;;;;4954889;29;20531;-58
2023/11/19 03:26:03;;;;;;;0.30;0.30;;;14.10;99.90;;;;;;4936328;29;20488;-59
2023/11/19 03:28:31;;;;;;;1.23;1.13;;;14.10;99.90;;;;;;5005551;23;20895;-59
2023/11/19 03:30:57;;;;;;;0.30;0.30;;;14.00;99.90;;;;;;4974540;28;20403;-58
2023/11/19 03:33:23;;;;;;;0.40;0.40;;;14.20;99.90;;;;;;4953323;29;20923;-59
2023/11/19 03:35:48;;;;;;;0.37;0.37;;;14.20;99.90;;;;;;4969947;28;20277;-59
2023/11/19 03:38:14;;;;;;;0.40;0.40;;;14.10;99.90;;;;;;4974476;28;20212;-59
2023/11/19 03:40:40;;;;;;;1.10;1.00;;;14.00;99.90;;;;;;4974407;28;20283;-58
2023/11/19 03:43:06;;;;;;;0.30;0.30;;;14.00;99.90;;;;;;4974021;28;20814;-58
2023/11/19 03:45:31;;;;;;;1.03;0.40;;;14.20;99.90;;;;;;4974370;28;20495;-58
2023/11/19 03:47:58;;;;;;;0.30;0.30;;;14.40;99.90;;;;;;4974022;28;20283;-58
2023/11/19 03:50:23;;;;;;;0.30;0.30;;;14.50;99.90;;;;;;4973853;28;20495;-58
2023/11/19 03:52:50;;;;;;;0.30;0.30;;;14.70;99.70;;;;;;4973671;28;20166;-58
2023/11/19 03:55:17;;;;;;;0.60;0.60;;;14.60;99.70;;;;;;4974138;28;20204;-58
2023/11/19 03:57:43;;;;;;;0.30;0.30;;;14.80;99.30;;;;;;4973867;28;20534;-58
2023/11/19 04:00:10;;;;;;;0.30;0.30;;;14.90;99.00;;;;;;4973965;28;20503;-59
2023/11/19 04:02:36;;;;;;;0.30;0.30;;;14.40;99.30;;;;;;4973676;28;20192;-58
2023/11/19 04:05:03;;;;;;;0.30;0.30;;;13.70;99.90;;;;;;4973834;28;20511;-58
2023/11/19 04:07:29;;;;;;;0.30;0.30;;;13.50;99.90;;;;;;4973812;28;20440;-58
2023/11/19 04:09:55;;;;;;;0.30;0.30;;;13.40;99.90;;;;;;4973814;28;20474;-58
2023/11/19 04:12:21;;;;;;;0.40;0.40;;;13.40;99.90;;;;;;4973391;28;20415;-58
2023/11/19 04:14:47;;;;;;;0.30;0.30;;;12.80;99.90;;;;;;4973730;28;20255;-58
2023/11/19 04:17:13;;;;;;;0.40;0.40;;;13.20;99.90;;;;;;4973447;28;21039;-58
2023/11/19 04:19:41;;;;;;;0.30;0.30;;;13.50;99.90;;;;;;4956479;28;20177;-57
2023/11/19 04:22:09;;;;;;;0.30;0.30;;;13.50;99.90;;;;;;4973542;28;20716;-58
2023/11/19 04:24:35;;;;;;;0.40;0.40;;;13.70;99.90;;;;;;4973455;28;20471;-58
2023/11/19 04:27:01;;;;;;;0.40;0.40;;;13.70;99.90;;;;;;4973249;28;20448;-58
2023/11/19 04:29:26;;;;;;;0.40;0.40;;;13.90;99.90;;;;;;4956109;28;20527;-58
2023/11/19 04:31:52;;;;;;;0.40;0.40;;;14.10;99.90;;;;;;4956024;28;20268;-58
2023/11/19 04:34:17;;;;;;;0.50;0.50;;;14.20;99.90;;;;;;4973486;28;20601;-58
2023/11/19 04:36:43;;;;;;;0.30;0.30;;;14.20;99.90;;;;;;4973293;28;20590;-58
2023/11/19 04:39:12;;;;;;;0.30;0.30;;;13.80;99.90;;;;;;4973358;28;20181;-58
2023/11/19 04:41:53;;;;;;;0.30;0.30;;;13.50;99.90;;;;;;4973175;28;20459;-58
2023/11/19 04:44:19;;;;;;;0.30;0.30;;;13.50;99.90;;;;;;4972946;28;20416;-58
2023/11/19 04:46:45;;;;;;;0.37;0.37;;;13.50;99.90;;;;;;4973131;28;20502;-58
2023/11/19 04:49:12;;;;;;;0.30;0.30;;;13.30;99.90;;;;;;4973722;28;20188;-58
2023/11/19 04:51:41;;;;;;;0.40;0.40;;;13.10;99.90;;;;;;4973139;28;20404;-58
2023/11/19 04:54:08;;;;;;;0.40;0.40;;;13.20;99.90;;;;;;4972834;28;20559;-58
2023/11/19 04:56:37;;;;;;;0.30;0.30;;;13.00;99.90;;;;;;4972790;28;20487;-58
2023/11/19 04:59:05;;;;;;;0.53;0.53;;;13.20;99.90;;;;;;4973014;28;20419;-58
2023/11/19 05:01:34;;;;;;;0.40;0.40;;;13.50;99.90;;;;;;4972366;28;20491;-58
2023/11/19 05:04:00;;;;;;;0.43;0.43;;;13.70;99.90;;;;;;4972713;28;20408;-56
2023/11/19 05:06:28;;;;;;;0.50;0.50;;;13.50;99.90;;;;;;4972865;28;20415;-58
2023/11/19 05:08:54;;;;;;;0.50;0.40;;;13.40;99.90;;;;;;4972857;28;20183;-58
2023/11/19 05:11:20;;;;;;;0.83;0.83;;;13.70;99.90;;;;;;4972769;28;20405;-58
2023/11/19 05:13:46;;;;;;;0.40;0.40;;;13.60;99.90;;;;;;4955528;28;20786;-58
2023/11/19 05:16:14;;;;;;;0.30;0.30;;;13.50;99.90;;;;;;4972832;28;20588;-58
2023/11/19 05:18:40;;;;;;;0.60;0.60;;;13.70;99.90;;;;;;4972816;28;20436;-58
2023/11/19 05:21:06;;;;;;;0.40;0.40;;;14.00;99.90;;;;;;4955578;28;20427;-58
2023/11/19 05:23:33;;;;;;;0.40;0.40;;;14.10;99.90;;;;;;4972334;28;21003;-58
2023/11/19 05:26:00;;;;;;;0.40;0.40;;;14.10;99.90;;;;;;4972701;28;20402;-58
2023/11/19 05:28:26;;;;;;;0.40;0.40;;;13.90;99.90;;;;;;4972571;28;20482;-58
2023/11/19 05:30:52;;;;;;;0.40;0.40;;;13.70;99.90;;;;;;4972660;28;20449;-59
2023/11/19 05:33:17;;;;;;;0.30;0.30;;;13.70;99.90;;;;;;4955082;28;20603;-58
2023/11/19 05:35:43;;;;;;;0.40;0.40;;;13.80;99.90;;;;;;4972634;28;20674;-58
2023/11/19 05:38:10;;;;;;;0.30;0.30;;;13.80;99.90;;;;;;4972423;28;20232;-58
2023/11/19 05:40:35;;;;;;;0.50;0.50;;;13.60;99.90;;;;;;4972569;28;20232;-58
2023/11/19 05:43:01;;;;;;;0.30;0.30;;;13.40;99.90;;;;;;4972334;28;20401;-59
2023/11/19 05:45:28;;;;;;;0.30;0.30;;;13.70;99.90;;;;;;4972620;28;20422;-59
2023/11/19 05:47:54;;;;;;;0.60;0.40;;;13.70;99.90;;;;;;4972350;28;20485;-58
2023/11/19 05:50:19;;;;;;;0.30;0.30;;;13.40;99.90;;;;;;4972597;28;20416;-58
2023/11/19 05:52:45;;;;;;;0.30;0.30;;;13.00;99.90;;;;;;4971959;28;20177;-58
2023/11/19 05:55:12;;;;;;;0.40;0.40;;;13.30;99.90;;;;;;4972295;28;20181;-58
2023/11/19 05:57:38;;;;;;;0.50;0.40;;;13.00;99.90;;;;;;4955248;28;20495;-58
2023/11/19 06:00:10;;;;;;;0.30;0.30;;;13.00;99.90;;;;;;4972524;28;20446;-59
2023/11/19 06:02:38;;;;;;;0.30;0.30;;;12.80;99.90;;;;;;4972141;28;20408;-58
2023/11/19 06:05:05;;;;;;;0.30;0.30;;;13.20;99.90;;;;;;4972357;28;20435;-58
2023/11/19 06:07:32;;;;;;;0.30;0.30;;;13.50;99.90;;;;;;4972159;28;21597;-58
2023/11/19 06:09:58;;;;;;;0.80;0.60;;;13.50;99.90;;;;;;4972479;28;20412;-58
2023/11/19 06:12:23;;;;;;;0.60;0.50;;;13.50;99.90;;;;;;4972778;28;20941;-58
2023/11/19 06:14:49;;;;;;;2.93;1.27;;;13.60;99.90;;;;;;4975969;28;20177;-58
2023/11/19 06:17:14;;;;;;;0.47;0.47;;;13.80;99.90;;;;;;4975643;28;20205;-58
2023/11/19 06:19:40;;;;;;;1.00;1.00;;;13.70;99.90;;;;;;4975571;28;20177;-58
2023/11/19 06:22:06;;;;;;;0.70;0.60;;;13.80;99.90;;;;;;4975490;28;20935;-58
2023/11/19 06:24:32;;;;;;;0.30;0.30;;;13.60;99.90;;;;;;4975850;28;20169;-58
2023/11/19 06:26:58;;;;;;;0.30;0.30;;;13.00;99.90;;;;;;4975544;28;20450;-58
2023/11/19 06:29:24;;;;;;;0.30;0.30;;;12.60;99.90;;;;;;4975777;28;20212;-58
2023/11/19 06:31:51;;;;;;;0.37;0.37;;;12.20;99.90;;;;;;4975656;28;20455;-58
2023/11/19 06:34:16;;;;;;;0.50;0.40;;;12.00;99.90;;;;;;4975385;28;20759;-58
2023/11/19 06:36:44;;;;;;;0.50;0.50;;;11.70;99.90;;;;;;4975360;28;20526;-58
2023/11/19 06:39:14;;;;;;;0.30;0.30;;;11.50;99.90;;;;;;4975460;28;20180;-58
2023/11/19 06:41:45;;;;;;;0.50;0.40;;;11.50;99.90;;;;;;4975471;28;21152;-58
2023/11/19 06:44:10;;;;;;;0.30;0.30;;;11.40;99.90;;;;;;4975248;28;20405;-58
2023/11/19 06:46:36;;;;;;;0.30;0.30;;;11.30;99.90;;;;;;4975332;28;20435;-58
2023/11/19 06:49:01;;;;;;;0.30;0.30;;;11.20;99.90;;;;;;4975269;28;20173;-56
2023/11/19 06:51:27;;;;;;;0.30;0.30;;;11.20;99.90;;;;;;4975196;28;20649;-58
2023/11/19 06:53:53;;;;;;;0.30;0.30;;;11.20;99.90;;;;;;4974854;28;20173;-58
2023/11/19 06:56:23;;;;;;;0.40;0.40;;;11.20;99.90;;;;;;4975221;28;20181;-58
2023/11/19 06:58:49;;;;;;;0.30;0.30;;;11.30;99.90;;;;;;4975125;28;20436;-58
2023/11/19 07:01:17;;;;;;;0.73;0.73;;;11.40;99.90;;;;;;4975220;28;20416;-58
2023/11/19 07:03:47;;;;;;;0.30;0.30;;;11.50;99.90;;;;;;4975528;28;20416;-58
2023/11/19 07:06:12;;;;;;;0.30;0.30;;;11.40;99.90;;;;;;4975045;28;20404;-58
2023/11/19 07:08:40;;;;;;;0.30;0.30;;;11.40;99.90;;;;;;4974869;28;20425;-58
2023/11/19 07:11:06;;;;;;;0.30;0.30;;;11.40;99.90;;;;;;4974981;28;20721;-58
2023/11/19 07:13:32;;;;;;;0.40;0.40;;;11.50;99.90;;;;;;4974623;28;20499;-58
2023/11/19 07:15:58;;;;;;;0.30;0.30;;;11.60;99.90;;;;;;4974881;28;20259;-58
2023/11/19 07:18:24;;;;;;;0.33;0.33;;;11.60;99.90;;;;;;4974655;28;20204;-58
2023/11/19 07:20:49;;;;;;;0.30;0.30;;;11.60;99.90;;;;;;4974823;28;20507;-58
2023/11/19 07:23:16;;;;;;;0.30;0.30;;;11.50;99.90;;;;;;4974300;28;20172;-58
2023/11/19 07:25:43;;;;;;;0.60;0.40;;;11.60;99.90;;;;;;4973960;28;20196;-58
2023/11/19 07:28:09;;;;;;;0.30;0.30;;;11.60;99.90;;;;;;4974569;28;20455;-58
2023/11/19 07:30:35;;;;;;;0.40;0.40;;;11.60;99.90;;;;;;4974557;28;20413;-58
2023/11/19 07:33:03;;;;;;;0.40;0.40;;;11.50;99.90;;;;;;4974227;28;20494;-58
2023/11/19 07:35:30;;;;;;;0.30;0.30;;;11.40;99.90;;;;;;4974512;28;20428;-58
2023/11/19 07:37:57;;;;;;;0.37;0.37;;;11.40;99.90;;;;;;4974192;28;20984;-58
2023/11/19 07:40:25;;;;;;;0.40;0.40;;;11.40;99.90;;;;;;4974358;28;20492;-58
2023/11/19 07:42:51;;;;;;;0.30;0.30;;;11.40;99.90;;;;;;4974069;28;20434;-58
2023/11/19 07:45:18;;;;;;;0.30;0.30;;;11.50;99.90;;;;;;4974212;28;20418;-58
2023/11/19 07:47:44;;;;;;;0.30;0.30;;;11.60;99.90;;;;;;4974140;28;20195;-57
2023/11/19 07:50:13;;;;;;;0.30;0.30;;;11.70;99.90;;;;;;4974160;28;20421;-58
2023/11/19 07:52:38;;;;;;;0.40;0.40;;;11.80;99.90;;;;;;4974053;28;20412;-58
2023/11/19 07:55:05;;;;;;;0.40;0.40;;;11.90;99.90;;;;;;4973963;28;20417;-58
2023/11/19 07:57:31;;;;;;;0.60;0.40;;;12.00;99.90;;;;;;4973410;28;20220;-58
2023/11/19 07:59:57;;;;;;;0.30;0.30;;;11.90;99.90;;;;;;4973920;28;20416;-58
2023/11/19 08:02:23;;;;;;;0.30;0.30;;;11.80;99.90;;;;;;4956809;28;20454;-58
2023/11/19 08:04:51;;;;;;;0.40;0.40;;;11.80;99.90;;;;;;4974038;28;20845;-58
2023/11/19 08:07:18;;;;;;;0.30;0.30;;;11.80;99.90;;;;;;4973854;28;20436;-58
2023/11/19 08:09:43;;;;;;;0.40;0.40;;;11.90;99.90;;;;;;4956737;28;20412;-58
2023/11/19 08:12:09;;;;;;;0.30;0.30;;;12.00;99.90;;;;;;4973698;28;20941;-58
2023/11/19 08:14:35;;;;;;;0.43;0.43;;;12.00;99.90;;;;;;4973653;28;20547;-57
2023/11/19 08:17:00;;;;;;;0.30;0.30;;;12.10;99.90;;;;;;4973572;28;20293;-58
2023/11/19 08:19:26;;;;;;;0.30;0.30;;;12.00;99.90;;;;;;4973672;28;20417;-58
2023/11/19 08:21:52;;;;;;;0.70;0.70;;;12.00;99.90;;;;;;4973687;28;20564;-60
2023/11/19 08:24:18;;;;;;;0.40;0.40;;;12.10;99.90;;;;;;4973632;28;20750;-60
2023/11/19 08:26:44;;;;;;;0.40;0.40;;;12.10;99.90;;;;;;4973163;28;20177;-60
2023/11/19 08:29:09;;;;;;;0.40;0.40;;;12.10;99.90;;;;;;4973532;28;20227;-58
2023/11/19 08:31:35;;;;;;;0.30;0.30;;;12.20;99.90;;;;;;4973574;28;20821;-58
2023/11/19 08:34:01;;;;;;;0.63;0.63;;;12.20;99.90;;;;;;4973214;28;20223;-58
2023/11/19 08:36:28;;;;;;;0.40;0.40;;;12.20;99.90;;;;;;4973103;28;20211;-58
2023/11/19 08:38:54;;;;;;;0.57;0.50;;;12.30;99.90;;;;;;4973340;28;20454;-58
2023/11/19 08:41:21;;;;;;;0.40;0.40;;;12.20;99.90;;;;;;4956064;28;20415;-57
2023/11/19 08:43:47;;;;;;;1.03;0.93;;;12.00;99.90;;;;;;4952066;29;20515;-58
2023/11/19 08:46:13;;;;;;;1.53;1.43;;;12.00;99.90;;;;;;4965442;28;20972;-58
2023/11/19 08:48:39;;;;;;;0.50;0.50;;;12.10;99.90;;;;;;4973074;28;20208;-58
2023/11/19 08:51:05;;;;;;;0.43;0.43;;;12.10;99.90;;;;;;4973136;28;20420;-58
2023/11/19 08:53:31;;;;;;;0.30;0.30;;;12.20;99.90;;;;;;4973013;28;20458;-58
2023/11/19 08:55:56;;;;;;;0.70;0.50;;;12.00;99.90;;;;;;4973105;28;20945;-58
2023/11/19 08:58:22;;;;;;;0.30;0.30;;;11.90;99.90;;;;;;4972951;28;20252;-58
2023/11/19 09:00:48;;;;;;;2.70;0.87;;;12.00;99.90;;;;;;4973165;28;20702;-58
2023/11/19 09:03:13;;;;;;;0.50;0.50;;;12.00;99.90;;;;;;4972719;28;20264;-58
2023/11/19 09:05:39;;;;;;;0.37;0.37;;;11.90;99.90;;;;;;4972928;28;20177;-58
2023/11/19 09:08:05;;;;;;;0.30;0.30;;;11.90;99.90;;;;;;4972866;28;20573;-58
2023/11/19 09:10:30;;;;;;;0.30;0.30;;;11.90;99.90;;;;;;4972949;28;20187;-58
2023/11/19 09:12:56;;;;;;;0.40;0.40;;;12.10;99.90;;;;;;4972601;28;20453;-58
2023/11/19 09:15:21;;;;;;;0.40;0.40;;;12.20;99.90;;;;;;4972831;28;20181;-58
2023/11/19 09:17:47;;;;;;;0.30;0.30;;;12.20;99.90;;;;;;4972663;28;20288;-58
2023/11/19 09:20:15;;;;;;;0.40;0.40;;;12.30;99.90;;;;;;4972514;28;20172;-58
2023/11/19 09:22:43;;;;;;;0.30;0.30;;;12.30;99.90;;;;;;4955567;28;20599;-58
2023/11/19 09:25:09;;;;;;;0.50;0.50;;;12.20;99.90;;;;;;4972766;28;20831;-58
2023/11/19 09:27:35;;;;;;;1.53;1.43;;;12.10;99.90;;;;;;4987452;23;20488;-58
2023/11/19 09:30:01;;;;;;;0.40;0.40;;;12.20;99.90;;;;;;4953740;29;20463;-57
2023/11/19 09:32:27;;;;;;;0.53;0.53;;;12.30;99.90;;;;;;4953102;29;20413;-58
2023/11/19 09:34:52;;;;;;;0.57;0.57;;;12.30;99.90;;;;;;4953618;29;20177;-58
2023/11/19 09:37:18;;;;;;;0.70;0.70;;;12.20;99.90;;;;;;4953478;29;20213;-58
2023/11/19 09:39:43;;;;;;;0.50;0.47;;;12.30;99.90;;;;;;4953486;29;20169;-58
2023/11/19 09:42:10;;;;;;;0.60;0.60;;;12.30;99.90;;;;;;4953466;29;20248;-58
2023/11/19 09:44:42;;;;;;;0.60;0.60;;;12.20;99.90;;;;;;4953632;29;20586;-58
2023/11/19 09:47:09;;;;;;;0.40;0.40;;;12.10;99.90;;;;;;4937287;29;20452;-58
2023/11/19 09:49:36;;;;;;;0.70;0.60;;;12.10;99.90;;;;;;4957213;29;20780;-58
2023/11/19 09:52:02;;;;;;;0.40;0.40;;;12.20;99.90;;;;;;4957165;29;20409;-58
2023/11/19 09:54:28;;;;;;;0.60;0.40;;;12.20;99.90;;;;;;4956896;29;20447;-58
2023/11/19 09:57:02;;;;;;;1.13;0.57;;;12.10;99.90;;;;;;4957152;29;20445;-58
2023/11/19 09:59:29;;;;;;;0.30;0.30;;;12.10;99.90;;;;;;4957072;29;20169;-58
2023/11/19 10:01:56;;;;;;;0.40;0.40;;;12.10;99.90;;;;;;4956747;29;20406;-57
2023/11/19 10:04:23;;;;;;;0.30;0.30;;;12.10;99.90;;;;;;4956599;29;20411;-58
2023/11/19 10:06:51;;;;;;;0.40;0.40;;;12.00;99.90;;;;;;4956870;29;20438;-58
2023/11/19 10:09:18;;;;;;;0.40;0.40;;;12.00;99.90;;;;;;4936211;29;20940;-58
2023/11/19 10:11:44;;;;;;;0.30;0.30;;;12.10;99.90;;;;;;4948154;29;20416;-58
2023/11/19 10:14:10;;;;;;;0.40;0.40;;;12.20;99.90;;;;;;4956702;29;20420;-58
2023/11/19 10:16:36;;;;;;;0.37;0.37;;;12.30;99.90;;;;;;4939626;29;20211;-57
2023/11/19 10:19:02;;;;;;;0.30;0.30;;;12.20;99.90;;;;;;4956601;29;20441;-58
2023/11/19 10:21:28;;;;;;;0.40;0.40;;;12.10;99.90;;;;;;4939344;29;20417;-58
2023/11/19 10:23:59;;;;;;;0.40;0.40;;;12.30;99.90;;;;;;4956382;29;20177;-58
2023/11/19 10:26:26;;;;;;;0.40;0.40;;;12.30;99.90;;;;;;4956690;29;20417;-58
2023/11/19 10:28:53;;;;;;;0.30;0.30;;;12.40;99.90;;;;;;4956441;29;20480;-58
2023/11/19 10:31:26;;;;;;;0.50;0.50;;;12.50;99.90;;;;;;4955826;29;20463;-58
2023/11/19 10:33:52;;;;;;;0.40;0.40;;;12.60;99.90;;;;;;4956627;29;20411;-58
2023/11/19 10:36:19;;;;;;;0.40;0.40;;;12.60;99.90;;;;;;4956380;29;20545;-58
2023/11/19 10:38:56;;;;;;;0.30;0.30;;;12.40;99.90;;;;;;4956395;29;20864;-58
2023/11/19 10:41:32;;;;;;;0.70;0.70;;;12.40;99.90;;;;;;4956766;29;20880;-57
2023/11/19 10:43:58;;;;;;;0.70;0.70;;;12.50;99.90;;;;;;4956118;29;20799;-58
2023/11/19 10:46:43;;;;;;;0.60;0.60;;;12.50;99.90;;;;;;4956080;29;20418;-58
2023/11/19 10:49:09;;;;;;;1.10;0.90;;;12.60;99.90;;;;;;4956260;29;20781;-58
2023/11/19 10:51:35;;;;;;;1.00;0.60;;;12.70;99.90;;;;;;4956167;29;20409;-58
2023/11/19 10:54:05;;;;;;;1.10;0.80;;;12.70;99.90;;;;;;4955624;29;20429;-58
2023/11/19 10:56:32;;;;;;;0.53;0.53;;;12.80;99.90;;;;;;4956039;29;20181;-58
2023/11/19 10:59:00;;;;;;;0.50;0.40;;;13.00;99.90;;;;;;4954840;28;20865;-58
2023/11/19 11:01:33;;;;;;;0.80;0.63;;;13.00;99.90;;;;;;4956198;29;20437;-58
2023/11/19 11:04:00;;;;;;;0.40;0.40;;;13.00;99.90;;;;;;4955688;29;20410;-58
2023/11/19 11:06:27;;;;;;;0.40;0.40;;;12.90;99.90;;;;;;4939146;29;20978;-58
2023/11/19 11:08:55;;;;;;;0.50;0.50;;;12.70;99.90;;;;;;4955918;29;20484;-58
2023/11/19 11:11:22;;;;;;;1.60;1.50;;;12.70;99.90;;;;;;4955800;29;20496;-58
2023/11/19 11:13:50;;;;;;;0.40;0.40;;;12.70;99.90;;;;;;4955734;29;20441;-58
2023/11/19 11:16:19;;;;;;;0.43;0.43;;;12.70;99.90;;;;;;4955741;29;20411;-58
2023/11/19 11:18:49;;;;;;;5.47;0.70;;;12.70;99.90;;;;;;4955650;29;20499;-58
2023/11/19 11:21:20;;;;;;;0.50;0.50;;;12.70;99.90;;;;;;4955691;29;20398;-58
2023/11/19 11:24:01;;;;;;;1.70;1.13;;;12.60;99.90;;;;;;4938877;29;20946;-58
2023/11/19 11:26:55;;;;;;;0.97;0.87;;;12.40;99.90;;;;;;4955515;29;20401;-58
2023/11/19 11:29:51;;;;;;;0.57;0.50;;;12.30;99.90;;;;;;4955641;29;20440;-58
2023/11/19 11:32:44;;;;;;;0.50;0.50;;;12.30;99.90;;;;;;4955056;29;20397;-58
2023/11/19 11:35:27;;;;;;;1.57;0.57;;;12.20;99.90;;;;;;4938217;29;20459;-58
2023/11/19 11:38:09;;;;;;;1.27;1.20;;;12.20;99.90;;;;;;4955362;29;20472;-58
2023/11/19 11:40:35;;;;;;;0.40;0.40;;;12.30;99.90;;;;;;4955306;29;20408;-58
2023/11/19 11:43:02;;;;;;;3.27;1.13;;;12.20;99.90;;;;;;4955067;29;20477;-58
2023/11/19 11:45:43;;;;;;;0.50;0.50;;;12.30;99.90;;;;;;4955316;29;20413;-58
2023/11/19 11:48:17;;;;;;;0.60;0.60;;;12.20;99.90;;;;;;4955159;29;21017;-58
2023/11/19 11:50:57;;;;;;;0.60;0.60;;;12.30;99.90;;;;;;4955380;29;20405;-58
2023/11/19 11:53:25;;;;;;;2.93;2.73;;;12.40;99.90;;;;;;4937562;29;20456;-58
2023/11/19 11:55:50;;;;;;;0.83;0.83;;;12.30;99.90;;;;;;4954830;29;20415;-58
2023/11/19 11:58:20;;;;;;;7.27;2.80;;;12.30;99.90;;;;;;4954995;29;20551;-58
2023/11/19 12:00:47;;;;;;;2.87;1.57;;;12.40;99.90;;;;;;4954862;29;20212;-58
2023/11/19 12:03:13;;;;;;;1.20;1.13;;;12.50;99.90;;;;;;4954615;29;20943;-58
2023/11/19 12:05:42;;;;;;;0.50;0.50;;;12.50;99.90;;;;;;4954731;29;20406;-58
2023/11/19 12:08:11;;;;;;;0.40;0.40;;;12.60;99.90;;;;;;4937883;29;20280;-58
2023/11/19 12:10:44;;;;;;;0.60;0.60;;;12.60;99.90;;;;;;4954456;28;20417;-58
2023/11/19 12:13:12;;;;;;;0.50;0.50;;;12.70;99.90;;;;;;4954528;29;20421;-58
2023/11/19 12:15:56;;;;;;;1.07;0.87;;;12.80;99.90;;;;;;4954441;29;20508;-58
2023/11/19 12:18:24;;;;;;;0.40;0.40;;;12.70;99.90;;;;;;4954425;29;20448;-58
2023/11/19 12:20:50;;;;;;;0.50;0.50;;;12.60;99.90;;;;;;4954581;29;20412;-58
2023/11/19 12:23:15;;;;;;;2.60;1.80;;;12.60;99.90;;;;;;4953552;29;20421;-59
2023/11/19 12:25:41;;;;;;;0.77;0.50;;;12.70;99.90;;;;;;4954471;29;20220;-59
2023/11/19 12:28:12;;;;;;;1.00;0.70;;;12.70;99.90;;;;;;4953710;29;20225;-58
2023/11/19 12:30:39;;;;;;;1.63;1.43;;;12.80;99.90;;;;;;4954438;29;20249;-59
2023/11/19 12:33:11;;;;;;;0.50;0.50;;;12.90;99.90;;;;;;4954307;29;20409;-59
2023/11/19 12:35:45;;;;;;;0.50;0.50;;;12.80;99.90;;;;;;4954022;29;20429;-59
2023/11/19 12:38:21;;;;;;;2.43;2.23;;;12.90;99.90;;;;;;4953945;29;20465;-59
2023/11/19 12:40:47;;;;;;;0.80;0.63;;;12.90;99.90;;;;;;4954250;29;20413;-58
2023/11/19 12:43:22;;;;;;;0.70;0.70;;;12.90;99.90;;;;;;4953950;29;20528;-58
2023/11/19 12:45:49;;;;;;;0.70;0.70;;;12.80;99.90;;;;;;4954220;29;20255;-59
2023/11/19 12:48:14;;;;;;;0.60;0.60;;;12.70;99.90;;;;;;4954281;29;20433;-58
2023/11/19 12:50:54;;;;;;;1.27;1.20;;;12.70;99.90;;;;;;4954024;29;20497;-58